createdAt,value
2022-12-09T00:01:20.576Z,1.00
2022-12-09T00:03:47.591Z,1.04
2022-12-09T00:06:20.482Z,1.12
2022-12-09T00:08:47.813Z,1.13
2022-12-09T00:11:14.727Z,1.16
2022-12-09T00:13:41.638Z,1.12
2022-12-09T00:16:11.017Z,1.11
2022-12-09T00:18:41.771Z,1.10
2022-12-09T00:21:22.702Z,1.08
2022-12-09T00:23:50.707Z,1.19
2022-12-09T00:26:18.855Z,1.10
2022-12-09T00:28:46.124Z,1.02
2022-12-09T00:31:15.885Z,1.11
2022-12-09T00:33:42.596Z,0.99
2022-12-09T00:36:16.703Z,1.05
2022-12-09T00:38:44.090Z,0.91
2022-12-09T00:41:11.634Z,1.11
2022-12-09T00:43:44.732Z,0.98
2022-12-09T00:46:12.716Z,0.94
2022-12-09T00:48:40.222Z,1.08
2022-12-09T00:51:12.199Z,1.04
2022-12-09T00:53:42.204Z,0.87
2022-12-09T00:56:12.254Z,0.90
2022-12-09T00:58:42.404Z,0.80
2022-12-09T01:01:11.817Z,0.94
2022-12-09T01:03:43.025Z,0.99
2022-12-09T01:06:19.830Z,0.90
2022-12-09T01:08:47.056Z,0.97
2022-12-09T01:11:26.487Z,1.00
2022-12-09T01:13:54.681Z,1.01
2022-12-09T01:16:26.998Z,1.05
2022-12-09T01:18:55.673Z,1.11
2022-12-09T01:21:22.261Z,1.12
2022-12-09T01:23:48.836Z,1.14
2022-12-09T01:26:15.458Z,1.12
2022-12-09T01:28:45.505Z,1.10
2022-12-09T01:31:17.890Z,1.11
2022-12-09T01:33:44.708Z,1.08
2022-12-09T01:36:20.981Z,0.98
2022-12-09T01:38:48.166Z,0.97
2022-12-09T01:41:17.213Z,1.06
2022-12-09T01:43:44.837Z,1.07
2022-12-09T01:46:14.685Z,1.04
2022-12-09T01:48:46.654Z,0.95
2022-12-09T01:51:19.863Z,0.97
2022-12-09T01:53:49.631Z,1.07
2022-12-09T01:56:29.274Z,0.89
2022-12-09T01:58:59.190Z,0.95
2022-12-09T02:01:26.032Z,0.86
2022-12-09T02:03:52.748Z,0.83
2022-12-09T02:06:19.668Z,0.91
2022-12-09T02:08:47.991Z,0.84
2022-12-09T02:11:40.709Z,0.88
2022-12-09T02:14:21.744Z,0.81
2022-12-09T02:17:17.180Z,0.85
2022-12-09T02:19:53.877Z,0.74
2022-12-09T02:22:27.298Z,0.79
2022-12-09T02:25:03.506Z,0.83
2022-12-09T02:27:45.117Z,0.70
2022-12-09T02:30:24.573Z,0.82
2022-12-09T02:33:02.817Z,0.85
2022-12-09T02:35:54.280Z,0.77
2022-12-09T02:38:25.307Z,0.76
2022-12-09T02:41:01.404Z,0.79
2022-12-09T02:43:32.871Z,0.67
2022-12-09T02:46:01.022Z,0.73
2022-12-09T02:48:37.214Z,0.84
2022-12-09T02:51:07.566Z,0.86
2022-12-09T02:53:36.424Z,0.87
2022-12-09T02:56:05.719Z,1.07
2022-12-09T02:58:32.476Z,0.98
2022-12-09T03:00:59.805Z,1.02
2022-12-09T03:03:29.333Z,1.12
2022-12-09T03:06:24.193Z,1.17
2022-12-09T03:09:03.499Z,1.23
2022-12-09T03:11:32.810Z,1.07
2022-12-09T03:14:18.978Z,1.01
2022-12-09T03:17:01.492Z,1.19
2022-12-09T03:19:42.435Z,1.14
2022-12-09T03:22:13.620Z,1.09
2022-12-09T03:24:52.446Z,1.08
2022-12-09T03:27:41.784Z,1.13
2022-12-09T03:30:10.079Z,1.10
2022-12-09T03:32:39.336Z,1.01
2022-12-09T03:35:13.221Z,1.26
2022-12-09T03:37:42.115Z,1.17
2022-12-09T03:40:14.737Z,1.10
2022-12-09T03:43:04.085Z,1.17
2022-12-09T03:45:31.598Z,1.17
2022-12-09T03:47:58.642Z,1.20
2022-12-09T03:50:29.521Z,1.27
2022-12-09T03:53:06.347Z,1.27
2022-12-09T03:55:43.961Z,1.36
2022-12-09T03:58:13.200Z,1.33
2022-12-09T04:00:40.018Z,1.28
2022-12-09T04:03:08.040Z,1.27
2022-12-09T04:05:35.034Z,1.10
2022-12-09T04:08:01.709Z,1.09
2022-12-09T04:10:29.052Z,1.00
2022-12-09T04:12:58.527Z,1.08
2022-12-09T04:15:25.218Z,1.15
2022-12-09T04:17:52.166Z,1.08
2022-12-09T04:20:22.607Z,0.98
2022-12-09T04:22:51.218Z,0.99
2022-12-09T04:25:18.122Z,0.90
2022-12-09T04:27:45.583Z,0.86
2022-12-09T04:30:12.768Z,0.94
2022-12-09T04:32:40.088Z,0.90
2022-12-09T04:35:07.329Z,1.18
2022-12-09T04:37:34.357Z,1.17
2022-12-09T04:40:01.343Z,1.27
2022-12-09T04:42:29.079Z,1.22
2022-12-09T04:44:55.909Z,1.27
2022-12-09T04:47:23.038Z,1.21
2022-12-09T04:49:53.169Z,1.28
2022-12-09T04:52:22.141Z,1.27
2022-12-09T04:54:53.318Z,1.29
2022-12-09T04:57:20.197Z,1.35
2022-12-09T04:59:47.072Z,1.21
2022-12-09T05:02:14.233Z,1.32
2022-12-09T05:04:42.983Z,1.28
2022-12-09T05:07:11.909Z,1.36
2022-12-09T05:09:39.093Z,1.41
2022-12-09T05:12:06.415Z,1.36
2022-12-09T05:14:32.967Z,1.23
2022-12-09T05:16:59.618Z,1.30
2022-12-09T05:19:26.640Z,1.28
2022-12-09T05:21:56.893Z,1.31
2022-12-09T05:24:26.651Z,1.31
2022-12-09T05:26:57.050Z,1.32
2022-12-09T05:29:27.085Z,1.29
2022-12-09T05:31:56.842Z,1.32
2022-12-09T05:34:27.387Z,1.35
2022-12-09T05:36:57.272Z,1.35
2022-12-09T05:39:27.321Z,1.37
2022-12-09T05:41:57.704Z,1.35
2022-12-09T05:44:27.381Z,1.28
2022-12-09T05:46:56.467Z,1.27
2022-12-09T05:49:26.269Z,1.39
2022-12-09T05:51:56.497Z,1.43
2022-12-09T05:54:23.212Z,1.25
2022-12-09T05:56:49.970Z,1.31
2022-12-09T05:59:17.091Z,1.35
2022-12-09T06:01:43.991Z,1.28
2022-12-09T06:04:11.090Z,1.35
2022-12-09T06:06:38.110Z,1.33
2022-12-09T06:09:08.672Z,1.29
2022-12-09T06:11:35.524Z,1.30
2022-12-09T06:14:02.295Z,1.29
2022-12-09T06:16:29.082Z,1.27
2022-12-09T06:18:59.998Z,1.21
2022-12-09T06:21:29.868Z,1.24
2022-12-09T06:23:58.570Z,1.29
2022-12-09T06:26:28.423Z,1.36
2022-12-09T06:28:58.508Z,1.31
2022-12-09T06:31:28.465Z,1.30
2022-12-09T06:33:59.875Z,1.27
2022-12-09T06:36:29.990Z,1.28
2022-12-09T06:39:09.682Z,1.32
2022-12-09T06:41:37.268Z,1.25
2022-12-09T06:44:04.200Z,1.30
2022-12-09T06:46:31.291Z,1.23
2022-12-09T06:49:01.037Z,1.38
2022-12-09T06:51:31.369Z,1.28
2022-12-09T06:54:00.961Z,1.33
2022-12-09T06:56:30.597Z,1.32
2022-12-09T06:58:59.334Z,1.25
2022-12-09T07:01:26.209Z,1.39
2022-12-09T07:03:55.687Z,1.31
2022-12-09T07:06:38.329Z,1.34
2022-12-09T07:09:08.100Z,1.30
2022-12-09T07:11:35.266Z,1.40
2022-12-09T07:14:02.894Z,1.45
2022-12-09T07:16:32.844Z,1.31
2022-12-09T07:19:02.809Z,1.45
2022-12-09T07:21:33.808Z,1.28
2022-12-09T07:24:03.877Z,1.29
2022-12-09T07:26:34.098Z,1.23
2022-12-09T07:29:05.249Z,1.17
2022-12-09T07:31:33.986Z,1.18
2022-12-09T07:34:04.852Z,1.22
2022-12-09T07:36:36.608Z,1.29
2022-12-09T07:39:08.442Z,1.34
2022-12-09T07:41:35.313Z,1.41
2022-12-09T07:44:02.629Z,1.43
2022-12-09T07:46:34.059Z,1.44
2022-12-09T07:49:04.592Z,1.45
2022-12-09T07:51:34.170Z,1.41
2022-12-09T07:54:01.719Z,1.32
2022-12-09T07:56:29.378Z,1.39
2022-12-09T07:58:57.447Z,1.43
2022-12-09T08:01:43.838Z,1.41
2022-12-09T08:04:11.183Z,1.38
2022-12-09T08:06:38.262Z,1.33
2022-12-09T08:09:09.320Z,1.51
2022-12-09T08:11:36.771Z,1.52
2022-12-09T08:14:12.181Z,1.47
2022-12-09T08:16:40.433Z,1.47
2022-12-09T08:19:08.170Z,1.50
2022-12-09T08:21:35.853Z,1.52
2022-12-09T08:24:08.079Z,1.53
2022-12-09T08:26:37.590Z,1.47
2022-12-09T08:29:09.056Z,1.58
2022-12-09T08:31:40.965Z,1.44
2022-12-09T08:34:08.973Z,1.45
2022-12-09T08:36:37.108Z,1.31
2022-12-09T08:39:06.109Z,1.45
2022-12-09T08:41:38.432Z,1.48
2022-12-09T08:44:11.186Z,1.58
2022-12-09T08:46:42.532Z,1.57
2022-12-09T08:49:10.987Z,1.55
2022-12-09T08:51:38.298Z,1.52
2022-12-09T08:54:06.011Z,1.51
2022-12-09T08:56:36.180Z,1.56
2022-12-09T08:59:06.824Z,1.48
2022-12-09T09:01:36.749Z,1.58
2022-12-09T09:04:10.103Z,1.59
2022-12-09T09:06:39.464Z,1.54
2022-12-09T09:09:08.349Z,1.44
2022-12-09T09:11:36.509Z,1.50
2022-12-09T09:14:08.641Z,1.61
2022-12-09T09:16:37.433Z,1.64
2022-12-09T09:19:06.097Z,1.67
2022-12-09T09:21:37.025Z,1.72
2022-12-09T09:24:16.739Z,1.65
2022-12-09T09:26:44.287Z,1.58
2022-12-09T09:29:12.671Z,1.71
2022-12-09T09:31:39.944Z,1.65
2022-12-09T09:34:07.384Z,1.85
2022-12-09T09:36:37.610Z,1.84
2022-12-09T09:39:07.127Z,1.96
2022-12-09T09:41:53.809Z,2.08
2022-12-09T09:44:28.041Z,2.18
2022-12-09T09:46:56.922Z,2.18
2022-12-09T09:50:20.424Z,2.18
2022-12-09T09:52:47.399Z,2.16
2022-12-09T09:55:18.463Z,2.16
2022-12-09T09:57:59.538Z,2.16
2022-12-09T10:00:38.816Z,2.21
2022-12-09T10:03:17.643Z,2.16
2022-12-09T10:05:58.490Z,2.32
2022-12-09T10:08:40.716Z,2.30
2022-12-09T10:11:23.418Z,2.38
2022-12-09T10:14:12.952Z,2.38
2022-12-09T10:17:08.617Z,2.48
2022-12-09T10:19:39.238Z,2.59
2022-12-09T10:22:14.748Z,2.47
2022-12-09T10:24:57.975Z,2.47
2022-12-09T10:27:30.457Z,2.41
2022-12-09T10:30:11.517Z,2.37
2022-12-09T10:32:39.436Z,2.32
2022-12-09T10:35:18.040Z,2.42
2022-12-09T10:37:46.624Z,2.59
2022-12-09T10:40:23.912Z,2.59
2022-12-09T10:43:14.535Z,2.67
2022-12-09T10:46:16.940Z,2.60
2022-12-09T10:48:48.876Z,2.66
2022-12-09T10:51:30.195Z,2.70
2022-12-09T10:54:04.179Z,2.68
2022-12-09T10:57:04.373Z,2.88
2022-12-09T10:59:35.361Z,2.75
2022-12-09T11:02:08.287Z,2.79
2022-12-09T11:04:43.928Z,2.94
2022-12-09T11:07:11.098Z,2.98
2022-12-09T11:10:05.491Z,2.83
2022-12-09T11:12:41.310Z,2.69
2022-12-09T11:15:43.604Z,2.67
2022-12-09T11:18:28.879Z,2.69
2022-12-09T11:21:20.472Z,2.66
2022-12-09T11:24:02.261Z,2.69
2022-12-09T11:26:36.003Z,2.66
2022-12-09T11:29:19.462Z,2.55
2022-12-09T11:31:48.432Z,2.42
2022-12-09T11:34:26.330Z,2.41
2022-12-09T11:36:56.689Z,2.43
2022-12-09T11:39:27.290Z,2.45
2022-12-09T11:42:22.941Z,2.50
2022-12-09T11:44:56.850Z,2.55
2022-12-09T11:50:42.326Z,2.57
2022-12-09T11:53:12.069Z,2.62
2022-12-09T11:55:48.258Z,2.74
2022-12-09T11:58:24.426Z,2.77
2022-12-09T12:01:29.591Z,2.92
2022-12-09T12:04:03.795Z,2.91
2022-12-09T12:06:58.946Z,2.82
2022-12-09T12:09:58.769Z,2.95
2022-12-09T12:12:36.457Z,2.99
2022-12-09T12:15:17.555Z,2.93
2022-12-09T12:17:50.491Z,2.85
2022-12-09T12:20:17.323Z,2.74
2022-12-09T12:23:23.715Z,2.71
2022-12-09T12:25:54.774Z,2.85
2022-12-09T12:28:56.661Z,2.92
2022-12-09T12:31:49.937Z,3.03
2022-12-09T12:34:25.696Z,3.03
2022-12-09T12:37:31.037Z,3.00
2022-12-09T12:40:27.138Z,3.04
2022-12-09T12:43:34.097Z,3.07
2022-12-09T12:46:26.864Z,3.04
2022-12-09T12:49:08.613Z,3.09
2022-12-09T12:51:51.148Z,3.15
2022-12-09T12:54:51.185Z,3.14
2022-12-09T12:57:36.310Z,3.08
2022-12-09T13:00:09.707Z,3.07
2022-12-09T13:02:36.588Z,3.04
2022-12-09T13:05:21.216Z,2.98
2022-12-09T13:08:06.162Z,2.90
2022-12-09T13:10:41.929Z,2.82
2022-12-09T13:13:20.111Z,2.77
2022-12-09T13:15:51.677Z,2.77
2022-12-09T13:18:50.790Z,2.79
2022-12-09T13:21:18.603Z,2.74
2022-12-09T13:23:48.100Z,2.76
2022-12-09T13:26:40.887Z,2.77
2022-12-09T13:29:30.147Z,2.80
2022-12-09T13:32:21.774Z,2.81
2022-12-09T13:34:54.503Z,2.79
2022-12-09T13:37:39.344Z,2.90
2022-12-09T13:40:36.854Z,2.93
2022-12-09T13:43:03.442Z,2.88
2022-12-09T13:45:34.398Z,2.83
2022-12-09T13:48:16.957Z,2.80
2022-12-09T13:51:00.010Z,2.74
2022-12-09T13:53:45.847Z,2.75
2022-12-09T13:56:26.994Z,2.75
2022-12-09T13:59:24.722Z,2.76
2022-12-09T14:01:53.704Z,2.74
2022-12-09T14:04:28.184Z,2.70
2022-12-09T14:06:57.732Z,2.67
2022-12-09T14:09:36.730Z,2.66
2022-12-09T14:12:12.541Z,2.67
2022-12-09T14:15:02.087Z,2.64
2022-12-09T14:17:31.408Z,2.61
2022-12-09T14:20:22.857Z,2.60
2022-12-09T14:23:12.785Z,2.63
2022-12-09T14:25:57.442Z,2.66
2022-12-09T14:28:37.915Z,2.58
2022-12-09T14:31:08.640Z,2.61
2022-12-09T14:33:46.521Z,2.59
2022-12-09T14:36:12.996Z,2.53
2022-12-09T14:39:23.006Z,2.39
2022-12-09T14:41:54.024Z,2.09
2022-12-09T14:44:33.010Z,2.18
2022-12-09T14:47:29.900Z,2.14
2022-12-09T14:50:07.964Z,2.15
2022-12-09T14:52:34.682Z,2.21
2022-12-09T14:55:08.158Z,2.23
2022-12-09T14:57:46.015Z,2.13
2022-12-09T15:00:30.276Z,2.25
2022-12-09T15:03:30.723Z,2.23
2022-12-09T15:06:09.202Z,2.24
2022-12-09T15:08:41.160Z,2.20
2022-12-09T15:11:18.269Z,2.13
2022-12-09T15:13:48.461Z,2.19
2022-12-09T15:16:25.209Z,2.24
2022-12-09T15:18:53.402Z,2.22
2022-12-09T15:21:28.505Z,2.27
2022-12-09T15:23:55.696Z,2.21
2022-12-09T15:26:32.395Z,2.20
2022-12-09T15:29:01.004Z,2.21
2022-12-09T15:31:30.062Z,2.16
2022-12-09T15:33:59.368Z,2.23
2022-12-09T15:36:45.590Z,2.34
2022-12-09T15:39:27.771Z,2.31
2022-12-09T15:42:11.398Z,2.23
2022-12-09T15:44:46.779Z,2.21
2022-12-09T15:47:23.447Z,2.16
2022-12-09T15:50:00.911Z,2.24
2022-12-09T15:52:33.820Z,2.17
2022-12-09T15:55:10.020Z,2.08
2022-12-09T15:57:41.104Z,2.03
2022-12-09T16:00:11.268Z,2.05
2022-12-09T16:02:41.218Z,2.04
2022-12-09T16:05:10.400Z,2.04
2022-12-09T16:07:59.748Z,1.91
2022-12-09T16:10:27.674Z,1.82
2022-12-09T16:13:11.981Z,1.82
2022-12-09T16:15:47.689Z,1.94
2022-12-09T16:18:18.790Z,1.90
2022-12-09T16:20:57.576Z,1.82
2022-12-09T16:23:25.881Z,1.87
2022-12-09T16:26:04.907Z,1.73
2022-12-09T16:28:34.798Z,1.68
2022-12-09T16:31:16.404Z,1.58
2022-12-09T16:33:48.128Z,1.52
2022-12-09T16:36:20.089Z,1.61
2022-12-09T16:39:23.873Z,1.57
2022-12-09T16:41:53.489Z,1.57
2022-12-09T16:44:29.769Z,1.34
2022-12-09T16:47:19.469Z,1.39
2022-12-09T16:49:48.035Z,1.34
2022-12-09T16:52:19.691Z,1.46
2022-12-09T16:54:48.284Z,1.29
2022-12-09T16:57:17.714Z,1.42
2022-12-09T16:59:45.383Z,1.39
2022-12-09T17:02:25.139Z,1.45
2022-12-09T17:04:52.377Z,1.47
2022-12-09T17:07:19.111Z,1.34
2022-12-09T17:09:46.094Z,1.38
2022-12-09T17:12:12.677Z,1.41
2022-12-09T17:14:39.221Z,1.41
2022-12-09T17:17:08.358Z,1.45
2022-12-09T17:19:34.979Z,1.34
2022-12-09T17:22:03.731Z,1.39
2022-12-09T17:24:30.295Z,1.44
2022-12-09T17:26:56.806Z,1.47
2022-12-09T17:29:23.333Z,1.39
2022-12-09T17:31:52.426Z,1.50
2022-12-09T17:34:19.562Z,1.33
2022-12-09T17:36:46.213Z,1.40
2022-12-09T17:39:12.957Z,1.42
2022-12-09T17:41:39.684Z,1.33
2022-12-09T17:44:08.968Z,1.48
2022-12-09T17:46:38.403Z,1.60
2022-12-09T17:49:04.947Z,1.59
2022-12-09T17:51:35.951Z,1.69
2022-12-09T17:54:03.547Z,1.63
2022-12-09T17:56:30.085Z,1.58
2022-12-09T17:58:59.923Z,1.59
2022-12-09T18:01:26.874Z,1.62
2022-12-09T18:04:01.617Z,1.59
2022-12-09T18:06:34.726Z,1.49
2022-12-09T18:09:03.025Z,1.42
2022-12-09T18:11:29.687Z,1.44
2022-12-09T18:13:57.564Z,1.43
2022-12-09T18:16:24.275Z,1.33
2022-12-09T18:18:50.881Z,1.29
2022-12-09T18:21:19.738Z,1.39
2022-12-09T18:23:48.220Z,1.30
2022-12-09T18:26:18.441Z,1.20
2022-12-09T18:28:45.514Z,1.21
2022-12-09T18:31:19.061Z,1.24
2022-12-09T18:33:45.916Z,1.31
2022-12-09T18:36:14.873Z,1.20
2022-12-09T18:38:48.365Z,1.21
2022-12-09T18:41:23.754Z,1.12
2022-12-09T18:43:52.344Z,1.20
2022-12-09T18:46:25.483Z,1.16
2022-12-09T18:48:58.197Z,1.11
2022-12-09T18:51:25.998Z,1.01
2022-12-09T18:53:52.851Z,1.09
2022-12-09T18:56:21.591Z,1.10
2022-12-09T19:01:39.733Z,1.04
2022-12-09T19:04:22.781Z,1.02
2022-12-09T19:06:54.881Z,0.90
2022-12-09T19:09:28.500Z,1.01
2022-12-09T19:11:55.010Z,0.93
2022-12-09T19:14:23.107Z,0.91
2022-12-09T19:16:50.689Z,0.95
2022-12-09T19:19:20.270Z,0.95
2022-12-09T19:21:47.132Z,0.85
2022-12-09T19:24:28.479Z,0.74
2022-12-09T19:26:57.815Z,0.84
2022-12-09T19:29:25.053Z,0.87
2022-12-09T19:31:52.955Z,0.76
2022-12-09T19:34:27.377Z,0.81
2022-12-09T19:37:03.294Z,0.66
2022-12-09T19:39:31.465Z,0.77
2022-12-09T19:41:59.075Z,0.77
2022-12-09T19:44:52.654Z,0.75
2022-12-09T19:47:13.167Z,0.63
2022-12-09T19:49:44.347Z,0.69
2022-12-09T19:52:12.046Z,0.75
2022-12-09T19:54:41.679Z,0.68
2022-12-09T19:57:11.525Z,0.68
2022-12-09T19:59:41.753Z,0.84
2022-12-09T20:02:12.573Z,0.76
2022-12-09T20:04:50.770Z,0.76
2022-12-09T20:07:18.723Z,0.88
2022-12-09T20:09:45.243Z,0.86
2022-12-09T20:12:11.989Z,0.90
2022-12-09T20:14:42.040Z,0.90
2022-12-09T20:17:11.718Z,0.85
2022-12-09T20:19:41.659Z,0.85
2022-12-09T20:22:09.709Z,0.79
2022-12-09T20:24:42.111Z,0.59
2022-12-09T20:27:11.960Z,0.81
2022-12-09T20:29:41.278Z,0.64
2022-12-09T20:32:10.772Z,0.80
2022-12-09T20:34:39.242Z,0.83
2022-12-09T20:37:06.086Z,0.83
2022-12-09T20:39:32.784Z,0.74
2022-12-09T20:41:59.894Z,0.76
2022-12-09T20:44:26.722Z,0.78
2022-12-09T20:46:53.521Z,0.64
2022-12-09T20:49:26.063Z,0.58
2022-12-09T20:51:53.115Z,0.67
2022-12-09T20:54:19.668Z,0.71
2022-12-09T20:56:46.283Z,0.55
2022-12-09T20:59:13.712Z,0.50
2022-12-09T21:01:41.196Z,0.60
2022-12-09T21:04:13.986Z,0.62
2022-12-09T21:06:41.383Z,0.63
2022-12-09T21:09:14.823Z,0.61
2022-12-09T21:11:41.513Z,0.56
2022-12-09T21:14:11.952Z,0.52
2022-12-09T21:16:42.503Z,0.66
2022-12-09T21:19:14.681Z,0.68
2022-12-09T21:21:43.420Z,0.61
2022-12-09T21:24:14.123Z,0.57
2022-12-09T21:26:41.554Z,0.59
2022-12-09T21:29:12.509Z,0.62
2022-12-09T21:31:42.615Z,0.55
2022-12-09T21:34:14.731Z,0.69
2022-12-09T21:36:43.307Z,0.65
2022-12-09T21:39:13.833Z,0.66
2022-12-09T21:41:43.975Z,0.53
2022-12-09T21:44:17.452Z,0.54
2022-12-09T21:46:44.330Z,0.46
2022-12-09T21:49:13.948Z,0.43
2022-12-09T21:51:43.698Z,0.52
2022-12-09T21:54:13.765Z,0.53
2022-12-09T21:56:43.600Z,0.41
2022-12-09T21:59:15.185Z,0.57
2022-12-09T22:01:43.001Z,0.46
2022-12-09T22:04:16.380Z,0.53
2022-12-09T22:06:48.159Z,0.56
2022-12-09T22:09:16.985Z,0.63
2022-12-09T22:11:44.328Z,0.64
2022-12-09T22:14:15.045Z,0.62
2022-12-09T22:16:53.351Z,0.64
2022-12-09T22:19:21.022Z,0.49
2022-12-09T22:21:48.787Z,0.62
2022-12-09T22:24:16.193Z,0.63
2022-12-09T22:26:46.429Z,0.52
2022-12-09T22:29:17.786Z,0.43
2022-12-09T22:31:45.746Z,0.42
2022-12-09T22:34:17.436Z,0.37
2022-12-09T22:36:48.938Z,0.41
2022-12-09T22:39:18.345Z,0.47
2022-12-09T22:41:48.387Z,0.46
2022-12-09T22:44:17.726Z,0.37
2022-12-09T22:46:47.944Z,0.42
2022-12-09T22:49:17.989Z,0.45
2022-12-09T22:51:46.178Z,0.47
2022-12-09T22:54:17.468Z,0.45
2022-12-09T22:56:47.315Z,0.35
2022-12-09T22:59:18.019Z,0.42
2022-12-09T23:01:50.864Z,0.31
2022-12-09T23:04:21.830Z,0.32
2022-12-09T23:06:50.032Z,0.36
2022-12-09T23:09:20.197Z,0.21
2022-12-09T23:11:46.844Z,0.13
2022-12-09T23:14:16.547Z,0.19
2022-12-09T23:16:45.654Z,0.17
2022-12-09T23:19:13.243Z,0.20
2022-12-09T23:21:43.053Z,0.24
2022-12-09T23:24:24.776Z,0.08
2022-12-09T23:26:51.605Z,0.21
2022-12-09T23:29:18.098Z,0.20
2022-12-09T23:31:46.724Z,0.24
2022-12-09T23:34:16.871Z,0.23
2022-12-09T23:36:50.255Z,0.12
2022-12-09T23:39:19.889Z,0.08
2022-12-09T23:41:49.189Z,-0.06
2022-12-09T23:44:18.521Z,0.05
2022-12-09T23:46:47.707Z,-0.02
2022-12-09T23:49:17.402Z,-0.01
2022-12-09T23:51:44.187Z,-0.01
2022-12-09T23:54:17.641Z,-0.11
2022-12-09T23:56:52.454Z,-0.09
2022-12-09T23:59:21.433Z,-0.11
